Time;durP1;ratioP1;P1;durP2;ratioP2;P2;SDS_P1;SDS_P2;PMS_P1;PMS_P2;Temp;Humidity;BMP_temperature;BMP_pressure;BME280_temperature;BME280_humidity;BME280_pressure;Samples;Min_cycle;Max_cycle;Signal;HPM_P1;HPM_P2
2022/06/10 00:01:43;;;;;;;;;;;20.20;51.10;;;;;;457783;259;1242;-75
2022/06/10 00:03:44;;;;;;;;;;;20.30;51.10;;;;;;457666;259;1144;-75
2022/06/10 00:05:47;;;;;;;;;;;20.20;51.10;;;;;;457734;259;1161;-75
2022/06/10 00:07:47;;;;;;;;;;;20.20;51.30;;;;;;457752;260;2155;-75
2022/06/10 00:09:48;;;;;;;;;;;20.20;51.20;;;;;;457646;259;1183;-75
2022/06/10 00:11:50;;;;;;;;;;;20.20;51.30;;;;;;457599;259;1197;-75
2022/06/10 00:13:51;;;;;;;;;;;20.20;51.30;;;;;;457652;259;1172;-75
2022/06/10 00:15:53;;;;;;;;;;;20.20;51.20;;;;;;457683;259;1111;-75
2022/06/10 00:17:54;;;;;;;;;;;20.20;51.30;;;;;;457795;259;1365;-75
2022/06/10 00:19:55;;;;;;;;;;;20.30;51.10;;;;;;457665;259;1118;-75
2022/06/10 00:21:56;;;;;;;;;;;20.30;51.10;;;;;;457749;256;1199;-75
2022/06/10 00:23:58;;;;;;;;;;;20.30;51.00;;;;;;457626;259;1220;-75
2022/06/10 00:25:59;;;;;;;;;;;20.30;51.10;;;;;;457668;259;1193;-75
2022/06/10 00:28:00;;;;;;;;;;;20.30;51.20;;;;;;457739;259;2172;-75
2022/06/10 00:30:02;;;;;;;;;;;20.20;51.20;;;;;;457591;259;1116;-75
2022/06/10 00:32:03;;;;;;;;;;;20.20;51.20;;;;;;457642;259;1196;-75
2022/06/10 00:34:05;;;;;;;;;;;20.30;51.10;;;;;;457783;259;1090;-75
2022/06/10 00:36:06;;;;;;;;;;;20.30;51.20;;;;;;457714;259;1127;-75
2022/06/10 00:38:08;;;;;;;;;;;20.30;51.00;;;;;;457667;259;1153;-75
2022/06/10 00:40:09;;;;;;;;;;;20.30;51.00;;;;;;457486;259;1210;-74
2022/06/10 00:42:10;;;;;;;;;;;20.30;51.10;;;;;;457577;259;1101;-75
2022/06/10 00:44:12;;;;;;;;;;;20.30;51.00;;;;;;457763;260;1181;-75
2022/06/10 00:46:13;;;;;;;;;;;20.30;51.10;;;;;;457747;259;1333;-75
2022/06/10 00:48:14;;;;;;;;;;;20.30;51.10;;;;;;457744;259;2194;-75
2022/06/10 00:50:16;;;;;;;;;;;20.30;51.10;;;;;;457696;259;1137;-74
2022/06/10 00:52:22;;;;;;;;;;;20.40;51.10;;;;;;457688;259;1260;-75
2022/06/10 00:54:19;;;;;;;;;;;20.30;51.10;;;;;;457715;259;1472;-75
2022/06/10 00:56:21;;;;;;;;;;;20.40;51.00;;;;;;457657;259;1252;-75
2022/06/10 00:58:22;;;;;;;;;;;20.40;50.80;;;;;;457745;259;1352;-75
2022/06/10 01:00:23;;;;;;;;;;;20.40;50.70;;;;;;457660;259;1151;-75
2022/06/10 01:02:25;;;;;;;;;;;20.40;50.80;;;;;;457629;259;1178;-75
2022/06/10 01:04:26;;;;;;;;;;;20.40;50.90;;;;;;457805;259;1132;-75
2022/06/10 01:06:27;;;;;;;;;;;20.40;50.90;;;;;;457632;259;1157;-75
2022/06/10 01:08:29;;;;;;;;;;;20.40;50.90;;;;;;457646;259;2210;-75
2022/06/10 01:10:30;;;;;;;;;;;20.40;50.90;;;;;;457603;259;1217;-75
2022/06/10 01:12:31;;;;;;;;;;;20.30;50.80;;;;;;457671;259;1164;-75
2022/06/10 01:14:33;;;;;;;;;;;20.40;50.90;;;;;;457714;260;1124;-75
2022/06/10 01:16:34;;;;;;;;;;;20.40;50.80;;;;;;457683;259;1277;-75
2022/06/10 01:18:35;;;;;;;;;;;20.40;50.90;;;;;;457818;259;1093;-74
2022/06/10 01:20:37;;;;;;;;;;;20.40;50.80;;;;;;457685;259;1302;-75
2022/06/10 01:22:38;;;;;;;;;;;20.40;50.70;;;;;;457634;259;1144;-75
2022/06/10 01:24:39;;;;;;;;;;;20.40;50.90;;;;;;457667;259;1117;-75
2022/06/10 01:29:01;;;;;;;;;;;20.40;50.80;;;;;;457733;259;2202;-75
2022/06/10 01:31:03;;;;;;;;;;;20.40;50.70;;;;;;457669;259;1063;-75
2022/06/10 01:33:04;;;;;;;;;;;20.40;50.60;;;;;;457668;259;1025;-75
2022/06/10 01:35:05;;;;;;;;;;;20.40;50.50;;;;;;457724;259;1078;-75
2022/06/10 01:37:07;;;;;;;;;;;20.30;50.60;;;;;;457648;259;1010;-75
2022/06/10 01:39:08;;;;;;;;;;;20.30;50.60;;;;;;457623;259;1108;-75
2022/06/10 01:41:09;;;;;;;;;;;20.40;50.50;;;;;;457680;259;1031;-75
2022/06/10 01:43:11;;;;;;;;;;;20.40;50.40;;;;;;457777;259;1171;-75
2022/06/10 01:45:12;;;;;;;;;;;20.30;50.50;;;;;;457628;259;1541;-75
2022/06/10 01:47:13;;;;;;;;;;;20.30;50.80;;;;;;457689;260;1002;-75
2022/06/10 01:49:15;;;;;;;;;;;20.30;50.80;;;;;;457630;259;2210;-75
2022/06/10 01:51:16;;;;;;;;;;;20.30;50.80;;;;;;457628;259;1484;-75
2022/06/10 01:53:17;;;;;;;;;;;20.30;50.80;;;;;;457689;259;996;-75
2022/06/10 01:55:19;;;;;;;;;;;20.30;50.80;;;;;;457729;259;1237;-75
2022/06/10 01:57:20;;;;;;;;;;;20.30;50.80;;;;;;457570;259;1157;-75
2022/06/10 01:59:22;;;;;;;;;;;20.40;50.70;;;;;;457709;259;1171;-75
2022/06/10 02:01:23;;;;;;;;;;;20.30;50.60;;;;;;457674;259;1121;-75
2022/06/10 02:03:24;;;;;;;;;;;20.40;50.60;;;;;;457700;259;1230;-75
2022/06/10 02:05:27;;;;;;;;;;;20.30;50.70;;;;;;457642;259;1234;-75
2022/06/10 02:07:27;;;;;;;;;;;20.40;50.70;;;;;;457804;259;1411;-75
2022/06/10 02:09:28;;;;;;;;;;;20.40;50.60;;;;;;457699;259;2147;-75
2022/06/10 02:11:30;;;;;;;;;;;20.40;50.50;;;;;;457644;260;1116;-74
2022/06/10 02:13:31;;;;;;;;;;;20.40;50.50;;;;;;457680;259;1207;-75
2022/06/10 02:15:32;;;;;;;;;;;20.40;50.50;;;;;;457688;260;1014;-75
2022/06/10 02:17:34;;;;;;;;;;;20.40;50.50;;;;;;457647;259;1051;-75
2022/06/10 02:19:35;;;;;;;;;;;20.40;50.50;;;;;;457741;259;980;-75
2022/06/10 02:21:37;;;;;;;;;;;20.40;50.50;;;;;;457759;259;1254;-75
2022/06/10 02:23:38;;;;;;;;;;;20.40;50.50;;;;;;457674;259;1061;-75
2022/06/10 02:25:39;;;;;;;;;;;20.40;50.40;;;;;;457700;259;1110;-75
2022/06/10 02:27:41;;;;;;;;;;;20.50;50.30;;;;;;457742;259;1173;-75
2022/06/10 02:29:42;;;;;;;;;;;20.40;50.30;;;;;;457723;259;2198;-75
2022/06/10 02:31:44;;;;;;;;;;;20.30;50.50;;;;;;457610;259;1217;-75
2022/06/10 02:33:45;;;;;;;;;;;20.40;50.50;;;;;;457705;259;1227;-75
2022/06/10 02:35:46;;;;;;;;;;;20.40;50.50;;;;;;457633;259;1168;-75
2022/06/10 02:37:47;;;;;;;;;;;20.50;50.50;;;;;;457693;259;1187;-75
2022/06/10 02:39:49;;;;;;;;;;;20.50;50.50;;;;;;457628;259;1153;-75
2022/06/10 02:41:50;;;;;;;;;;;20.40;50.40;;;;;;457576;259;1129;-75
2022/06/10 02:43:52;;;;;;;;;;;20.40;50.50;;;;;;457613;259;1208;-75
2022/06/10 02:45:53;;;;;;;;;;;20.50;50.50;;;;;;457792;259;1195;-75
2022/06/10 02:47:54;;;;;;;;;;;20.40;50.50;;;;;;457794;260;1144;-75
2022/06/10 02:49:56;;;;;;;;;;;20.40;50.40;;;;;;457721;260;2151;-75
2022/06/10 02:51:57;;;;;;;;;;;20.40;50.30;;;;;;457694;259;1250;-74
2022/06/10 02:53:58;;;;;;;;;;;20.40;50.40;;;;;;457717;259;1163;-75
2022/06/10 02:56:00;;;;;;;;;;;20.40;50.40;;;;;;457632;259;1244;-75
2022/06/10 03:02:39;;;;;;;;;;;20.40;50.10;;;;;;457617;260;1264;-75
2022/06/10 03:04:41;;;;;;;;;;;20.30;50.40;;;;;;457830;259;1515;-75
2022/06/10 03:06:42;;;;;;;;;;;20.40;50.50;;;;;;457674;256;1224;-75
2022/06/10 03:08:43;;;;;;;;;;;20.40;50.60;;;;;;457733;259;1163;-75
2022/06/10 03:10:45;;;;;;;;;;;20.30;50.50;;;;;;457732;260;2143;-75
2022/06/10 03:12:46;;;;;;;;;;;20.40;50.50;;;;;;457786;259;1130;-75
2022/06/10 03:14:47;;;;;;;;;;;20.30;50.60;;;;;;457655;260;1167;-75
2022/06/10 03:16:49;;;;;;;;;;;20.30;50.60;;;;;;457674;260;1169;-75
2022/06/10 03:18:51;;;;;;;;;;;20.40;50.50;;;;;;457768;259;1130;-75
2022/06/10 03:20:51;;;;;;;;;;;20.30;50.50;;;;;;457720;259;1565;-75
2022/06/10 03:22:53;;;;;;;;;;;20.30;50.40;;;;;;457768;259;1576;-75
2022/06/10 03:24:54;;;;;;;;;;;20.30;50.50;;;;;;457724;259;1357;-75
2022/06/10 03:26:56;;;;;;;;;;;20.30;50.60;;;;;;457747;259;1250;-75
2022/06/10 03:28:57;;;;;;;;;;;20.40;50.70;;;;;;457726;259;1181;-75
2022/06/10 03:30:58;;;;;;;;;;;20.30;50.70;;;;;;457665;259;1228;-75
2022/06/10 03:33:00;;;;;;;;;;;20.40;50.50;;;;;;457859;259;1092;-75
2022/06/10 03:35:01;;;;;;;;;;;20.30;50.40;;;;;;457745;259;1072;-75
2022/06/10 03:37:02;;;;;;;;;;;20.30;50.60;;;;;;457624;259;1258;-75
2022/06/10 03:39:04;;;;;;;;;;;20.30;50.60;;;;;;457756;259;1014;-75
2022/06/10 03:41:05;;;;;;;;;;;20.30;50.40;;;;;;457674;259;1020;-75
2022/06/10 03:43:06;;;;;;;;;;;20.30;50.40;;;;;;457667;259;1085;-75
2022/06/10 03:45:08;;;;;;;;;;;20.20;50.50;;;;;;457731;259;1201;-75
2022/06/10 03:47:09;;;;;;;;;;;20.30;50.70;;;;;;457631;259;1013;-75
2022/06/10 03:49:11;;;;;;;;;;;20.30;50.70;;;;;;457606;259;2190;-75
2022/06/10 03:51:12;;;;;;;;;;;20.30;50.60;;;;;;457718;259;1358;-75
2022/06/10 03:53:13;;;;;;;;;;;20.30;50.40;;;;;;457750;259;1069;-75
2022/06/10 03:55:14;;;;;;;;;;;20.30;50.40;;;;;;457676;259;1028;-75
2022/06/10 03:57:17;;;;;;;;;;;20.20;50.40;;;;;;457673;259;1068;-75
2022/06/10 03:59:17;;;;;;;;;;;20.30;50.40;;;;;;457667;259;1296;-75
2022/06/10 04:01:18;;;;;;;;;;;20.20;50.40;;;;;;457554;259;1086;-75
2022/06/10 04:03:20;;;;;;;;;;;20.20;50.60;;;;;;457656;259;1088;-75
2022/06/10 04:05:21;;;;;;;;;;;20.20;50.70;;;;;;457781;259;1048;-75
2022/06/10 04:07:22;;;;;;;;;;;20.20;50.50;;;;;;457723;259;1063;-75
2022/06/10 04:09:24;;;;;;;;;;;20.20;50.60;;;;;;457770;259;2194;-75
2022/06/10 04:11:25;;;;;;;;;;;20.20;50.70;;;;;;457719;260;1108;-75
2022/06/10 04:13:26;;;;;;;;;;;20.30;50.50;;;;;;457804;259;1064;-75
2022/06/10 04:15:28;;;;;;;;;;;20.30;50.40;;;;;;457804;259;1226;-75
2022/06/10 04:17:29;;;;;;;;;;;20.30;50.50;;;;;;457792;259;1138;-75
2022/06/10 04:19:30;;;;;;;;;;;20.20;50.60;;;;;;457773;259;1213;-74
2022/06/10 04:21:32;;;;;;;;;;;20.20;50.60;;;;;;457739;259;1306;-75
2022/06/10 04:23:33;;;;;;;;;;;20.30;50.60;;;;;;457748;259;1138;-75
2022/06/10 04:25:35;;;;;;;;;;;20.30;50.60;;;;;;457681;259;1290;-75
2022/06/10 04:27:36;;;;;;;;;;;20.30;50.50;;;;;;457637;259;1251;-75
2022/06/10 04:29:37;;;;;;;;;;;20.30;50.30;;;;;;457606;259;2206;-75
2022/06/10 04:31:39;;;;;;;;;;;20.30;50.40;;;;;;457727;259;1239;-75
2022/06/10 04:33:40;;;;;;;;;;;20.30;50.30;;;;;;457699;259;1116;-75
2022/06/10 04:35:41;;;;;;;;;;;20.30;50.40;;;;;;457714;259;1223;-75
2022/06/10 04:37:44;;;;;;;;;;;20.10;50.40;;;;;;457564;259;1337;-75
2022/06/10 04:39:44;;;;;;;;;;;20.20;50.50;;;;;;457724;259;1412;-75
2022/06/10 04:41:46;;;;;;;;;;;20.20;50.60;;;;;;457634;260;1046;-75
2022/06/10 04:43:47;;;;;;;;;;;20.20;50.50;;;;;;457681;259;1064;-75
2022/06/10 04:45:48;;;;;;;;;;;20.20;50.70;;;;;;457695;259;1108;-75
2022/06/10 04:47:50;;;;;;;;;;;20.20;50.70;;;;;;457708;259;1071;-75
2022/06/10 04:49:51;;;;;;;;;;;20.10;50.70;;;;;;457691;259;2198;-75
2022/06/10 04:51:52;;;;;;;;;;;20.20;50.80;;;;;;457598;259;1068;-75
2022/06/10 04:53:54;;;;;;;;;;;20.20;50.60;;;;;;457613;259;1308;-75
2022/06/10 04:55:55;;;;;;;;;;;20.20;50.60;;;;;;457603;259;1001;-75
2022/06/10 04:57:56;;;;;;;;;;;20.20;50.50;;;;;;457628;259;1064;-75
2022/06/10 04:59:58;;;;;;;;;;;20.20;50.60;;;;;;457639;259;1278;-75
2022/06/10 05:01:59;;;;;;;;;;;20.20;50.70;;;;;;457583;259;1055;-75
2022/06/10 05:04:00;;;;;;;;;;;20.20;50.70;;;;;;457642;259;1067;-75
2022/06/10 05:06:02;;;;;;;;;;;20.20;50.80;;;;;;457568;259;1213;-75
2022/06/10 05:08:03;;;;;;;;;;;20.20;50.60;;;;;;457617;259;1145;-75
2022/06/10 05:10:05;;;;;;;;;;;20.20;50.80;;;;;;457597;259;2190;-75
2022/06/10 05:12:06;;;;;;;;;;;20.20;50.80;;;;;;457489;259;1207;-75
2022/06/10 05:14:07;;;;;;;;;;;20.20;50.80;;;;;;457620;259;1065;-75
2022/06/10 05:16:09;;;;;;;;;;;20.20;50.70;;;;;;457590;259;1209;-74
2022/06/10 05:18:10;;;;;;;;;;;20.20;50.60;;;;;;457675;259;1117;-75
2022/06/10 05:20:11;;;;;;;;;;;20.20;50.70;;;;;;457606;259;1079;-75
2022/06/10 05:22:13;;;;;;;;;;;20.10;50.70;;;;;;457660;259;1043;-75
2022/06/10 05:24:14;;;;;;;;;;;20.10;50.80;;;;;;457626;259;1209;-75
2022/06/10 05:26:15;;;;;;;;;;;20.10;50.80;;;;;;457527;259;1245;-75
2022/06/10 05:28:17;;;;;;;;;;;20.20;50.80;;;;;;457648;259;1130;-75
2022/06/10 05:30:18;;;;;;;;;;;20.20;50.80;;;;;;457542;259;2186;-75
2022/06/10 05:32:19;;;;;;;;;;;20.20;50.80;;;;;;457498;259;1266;-75
2022/06/10 05:36:40;;;;;;;;;;;20.20;50.80;;;;;;457435;260;1151;-75
2022/06/10 05:38:41;;;;;;;;;;;20.20;50.80;;;;;;457444;259;1073;-75
2022/06/10 05:40:43;;;;;;;;;;;20.30;50.80;;;;;;457616;259;1180;-75
2022/06/10 05:42:44;;;;;;;;;;;20.20;50.70;;;;;;457460;259;1304;-75
2022/06/10 05:44:46;;;;;;;;;;;20.20;50.80;;;;;;457450;259;1214;-75
2022/06/10 05:46:47;;;;;;;;;;;20.20;50.60;;;;;;457397;256;1277;-75
2022/06/10 05:48:48;;;;;;;;;;;20.20;50.60;;;;;;457500;259;1109;-75
2022/06/10 05:50:49;;;;;;;;;;;20.20;50.80;;;;;;457577;260;2151;-75
2022/06/10 05:52:51;;;;;;;;;;;20.20;50.70;;;;;;457477;259;1069;-75
2022/06/10 05:54:52;;;;;;;;;;;20.20;50.70;;;;;;457560;259;1062;-75
2022/06/10 05:56:53;;;;;;;;;;;20.20;50.80;;;;;;457338;259;1034;-75
2022/06/10 05:58:55;;;;;;;;;;;20.20;50.80;;;;;;457346;259;1058;-75
2022/06/10 06:00:56;;;;;;;;;;;20.20;50.70;;;;;;457435;260;1199;-75
2022/06/10 06:02:59;;;;;;;;;;;20.20;50.70;;;;;;457350;259;1204;-75
2022/06/10 06:05:00;;;;;;;;;;;20.20;50.80;;;;;;457397;259;1223;-75
2022/06/10 06:07:01;;;;;;;;;;;20.20;50.70;;;;;;457476;259;1172;-75
2022/06/10 06:09:03;;;;;;;;;;;20.20;50.80;;;;;;457333;259;1246;-75
2022/06/10 06:11:04;;;;;;;;;;;20.20;50.80;;;;;;457405;260;2155;-75
2022/06/10 06:13:05;;;;;;;;;;;20.20;50.80;;;;;;457259;259;1235;-75
2022/06/10 06:15:07;;;;;;;;;;;20.20;50.80;;;;;;457282;259;1212;-75
2022/06/10 06:17:08;;;;;;;;;;;20.20;50.70;;;;;;457099;259;1176;-75
2022/06/10 06:19:09;;;;;;;;;;;20.20;50.70;;;;;;457146;259;1159;-75
2022/06/10 06:21:11;;;;;;;;;;;20.20;50.80;;;;;;457295;259;1236;-75
2022/06/10 06:23:12;;;;;;;;;;;20.20;50.80;;;;;;457238;260;1100;-75
2022/06/10 06:25:15;;;;;;;;;;;20.20;50.70;;;;;;457191;259;1109;-75
2022/06/10 06:27:16;;;;;;;;;;;20.20;50.90;;;;;;457317;259;1443;-75
2022/06/10 06:29:16;;;;;;;;;;;20.20;50.90;;;;;;457206;259;1281;-75
2022/06/10 06:31:18;;;;;;;;;;;20.20;50.80;;;;;;457128;259;2209;-75
2022/06/10 06:33:19;;;;;;;;;;;20.20;50.80;;;;;;457108;259;1097;-75
2022/06/10 06:35:21;;;;;;;;;;;20.20;50.90;;;;;;457087;259;1372;-75
2022/06/10 06:37:22;;;;;;;;;;;20.20;50.70;;;;;;457261;259;1540;-75
2022/06/10 06:39:23;;;;;;;;;;;20.30;50.80;;;;;;457110;259;1180;-75
2022/06/10 06:41:25;;;;;;;;;;;20.20;50.80;;;;;;457002;259;1104;-75
2022/06/10 06:43:26;;;;;;;;;;;20.20;51.10;;;;;;457484;259;1176;-75
2022/06/10 06:45:27;;;;;;;;;;;20.20;50.80;;;;;;456984;259;1182;-75
2022/06/10 06:47:29;;;;;;;;;;;20.30;50.90;;;;;;456871;259;1227;-75
2022/06/10 06:49:30;;;;;;;;;;;20.20;50.90;;;;;;457123;259;1119;-75
2022/06/10 06:51:32;;;;;;;;;;;20.20;51.00;;;;;;457233;259;2205;-75
2022/06/10 06:53:33;;;;;;;;;;;20.20;51.00;;;;;;457182;260;1147;-75
2022/06/10 06:55:34;;;;;;;;;;;20.20;50.90;;;;;;456905;259;1322;-75
2022/06/10 06:57:36;;;;;;;;;;;20.20;51.00;;;;;;457031;259;1110;-75
2022/06/10 06:59:38;;;;;;;;;;;20.20;51.00;;;;;;457021;259;1174;-75
2022/06/10 07:01:39;;;;;;;;;;;20.10;51.10;;;;;;456925;259;1288;-75
2022/06/10 07:03:41;;;;;;;;;;;20.10;51.20;;;;;;457019;259;1092;-75
2022/06/10 07:05:43;;;;;;;;;;;20.10;51.20;;;;;;456922;259;1220;-75
2022/06/10 07:07:44;;;;;;;;;;;20.20;51.20;;;;;;456984;259;1098;-75
2022/06/10 07:09:46;;;;;;;;;;;20.20;51.20;;;;;;456966;259;1101;-75
2022/06/10 07:11:47;;;;;;;;;;;20.30;51.10;;;;;;456747;259;2209;-75
2022/06/10 07:13:48;;;;;;;;;;;20.20;51.10;;;;;;456755;259;1215;-76
2022/06/10 07:15:50;;;;;;;;;;;20.20;51.20;;;;;;456849;259;1154;-75
2022/06/10 07:17:51;;;;;;;;;;;20.20;51.30;;;;;;456939;259;1149;-75
2022/06/10 07:19:54;;;;;;;;;;;20.20;51.20;;;;;;456957;259;1200;-76
2022/06/10 07:21:54;;;;;;;;;;;20.30;51.00;;;;;;456800;260;1394;-75
2022/06/10 07:23:55;;;;;;;;;;;20.30;50.90;;;;;;456855;259;1100;-76
2022/06/10 07:25:58;;;;;;;;;;;20.30;50.80;;;;;;456843;259;1081;-74
2022/06/10 07:27:58;;;;;;;;;;;20.20;51.20;;;;;;456932;259;1387;-74
2022/06/10 07:29:59;;;;;;;;;;;20.10;51.40;;;;;;456854;260;1414;-74
2022/06/10 07:32:00;;;;;;;;;;;20.10;51.40;;;;;;456825;259;2206;-74
2022/06/10 07:34:02;;;;;;;;;;;20.10;51.50;;;;;;456836;259;1139;-74
2022/06/10 07:36:04;;;;;;;;;;;20.10;51.40;;;;;;456686;259;1083;-74
2022/06/10 07:38:04;;;;;;;;;;;20.00;51.40;;;;;;456768;259;1332;-74
2022/06/10 07:40:06;;;;;;;;;;;20.00;51.50;;;;;;456766;259;1141;-75
2022/06/10 07:42:07;;;;;;;;;;;20.10;51.40;;;;;;456819;259;1061;-74
2022/06/10 07:44:08;;;;;;;;;;;20.10;51.50;;;;;;456857;259;1074;-74
2022/06/10 07:46:10;;;;;;;;;;;20.10;51.50;;;;;;456931;259;1114;-74
2022/06/10 07:48:11;;;;;;;;;;;20.20;51.50;;;;;;457018;259;1526;-74
2022/06/10 07:50:12;;;;;;;;;;;20.10;51.50;;;;;;456963;259;1102;-74
2022/06/10 07:52:15;;;;;;;;;;;20.10;51.40;;;;;;456775;259;2206;-74
2022/06/10 07:54:15;;;;;;;;;;;20.10;51.60;;;;;;456747;259;1488;-74
2022/06/10 07:56:16;;;;;;;;;;;20.10;51.60;;;;;;456796;259;1123;-74
2022/06/10 07:58:18;;;;;;;;;;;20.10;51.60;;;;;;456861;259;1387;-74
2022/06/10 08:00:19;;;;;;;;;;;20.10;51.60;;;;;;456869;259;1248;-75
2022/06/10 08:02:21;;;;;;;;;;;20.10;51.70;;;;;;456903;259;1178;-75
2022/06/10 08:04:22;;;;;;;;;;;20.10;51.60;;;;;;456763;259;1168;-75
2022/06/10 08:06:23;;;;;;;;;;;20.10;51.70;;;;;;456845;259;1168;-75
2022/06/10 08:08:25;;;;;;;;;;;20.10;51.60;;;;;;457693;259;1136;-74
2022/06/10 08:10:26;;;;;;;;;;;20.10;51.70;;;;;;457113;259;1136;-74
2022/06/10 08:12:27;;;;;;;;;;;20.10;51.70;;;;;;456601;259;2222;-74
2022/06/10 08:14:29;;;;;;;;;;;20.20;51.70;;;;;;456863;259;1117;-74
2022/06/10 08:16:30;;;;;;;;;;;20.20;51.60;;;;;;456668;259;1101;-75
2022/06/10 08:18:33;;;;;;;;;;;20.10;51.60;;;;;;456801;260;1216;-76
2022/06/10 08:22:52;;;;;;;;;;;20.10;51.70;;;;;;456790;260;1106;-74
2022/06/10 08:24:53;;;;;;;;;;;20.10;51.70;;;;;;456763;259;1071;-75
2022/06/10 08:26:55;;;;;;;;;;;20.10;51.70;;;;;;456752;259;1290;-75
2022/06/10 08:28:59;;;;;;;;;;;20.10;51.70;;;;;;456988;259;1085;-75
2022/06/10 08:30:57;;;;;;;;;;;20.10;51.80;;;;;;456958;259;2351;-75
2022/06/10 08:33:03;;;;;;;;;;;20.10;51.80;;;;;;456907;259;1116;-75
2022/06/10 08:35:01;;;;;;;;;;;20.10;51.80;;;;;;456870;260;1528;-75
2022/06/10 08:37:02;;;;;;;;;;;20.10;51.90;;;;;;456910;259;1139;-74
2022/06/10 08:39:03;;;;;;;;;;;20.20;51.90;;;;;;456803;259;1101;-75
2022/06/10 08:41:05;;;;;;;;;;;20.10;51.90;;;;;;456700;259;1151;-74
2022/06/10 08:43:07;;;;;;;;;;;20.10;52.00;;;;;;456616;259;1139;-75
2022/06/10 08:45:08;;;;;;;;;;;20.20;52.00;;;;;;456640;259;1528;-74
2022/06/10 08:47:10;;;;;;;;;;;20.20;51.90;;;;;;456752;259;1324;-74
2022/06/10 08:49:11;;;;;;;;;;;20.20;51.70;;;;;;456674;259;1183;-74
2022/06/10 08:51:12;;;;;;;;;;;20.10;51.90;;;;;;456671;259;2135;-74
2022/06/10 08:53:13;;;;;;;;;;;20.20;52.00;;;;;;456550;259;1304;-74
2022/06/10 08:55:15;;;;;;;;;;;20.10;51.80;;;;;;456606;259;1208;-74
2022/06/10 08:57:16;;;;;;;;;;;20.10;52.00;;;;;;456647;259;1144;-74
2022/06/10 08:59:17;;;;;;;;;;;20.10;52.10;;;;;;456632;259;1249;-74
2022/06/10 09:01:19;;;;;;;;;;;20.20;52.00;;;;;;456753;259;1311;-75
2022/06/10 09:03:20;;;;;;;;;;;20.10;52.30;;;;;;456811;259;1169;-74
2022/06/10 09:05:21;;;;;;;;;;;20.10;52.30;;;;;;456808;259;1351;-74
2022/06/10 09:07:23;;;;;;;;;;;20.10;52.20;;;;;;456798;259;1519;-74
2022/06/10 09:09:26;;;;;;;;;;;20.20;52.10;;;;;;456771;259;1276;-74
2022/06/10 09:11:26;;;;;;;;;;;20.20;52.00;;;;;;456623;259;2206;-74
2022/06/10 09:13:28;;;;;;;;;;;20.20;52.10;;;;;;456509;259;1169;-75
2022/06/10 09:15:29;;;;;;;;;;;20.20;52.20;;;;;;456733;259;1380;-74
2022/06/10 09:17:30;;;;;;;;;;;20.20;52.10;;;;;;456945;259;1210;-74
2022/06/10 09:19:32;;;;;;;;;;;20.20;52.10;;;;;;456907;259;1271;-74
2022/06/10 09:21:33;;;;;;;;;;;20.20;52.10;;;;;;456731;259;1234;-74
2022/06/10 09:23:34;;;;;;;;;;;20.40;52.00;;;;;;456553;259;1198;-74
2022/06/10 09:25:36;;;;;;;;;;;20.30;52.00;;;;;;456568;259;1136;-74
2022/06/10 09:27:37;;;;;;;;;;;20.30;51.90;;;;;;456690;259;1239;-74
2022/06/10 09:29:40;;;;;;;;;;;20.20;52.10;;;;;;456665;259;1132;-74
2022/06/10 09:31:40;;;;;;;;;;;20.20;52.10;;;;;;456884;259;2139;-74
2022/06/10 09:33:41;;;;;;;;;;;20.20;52.10;;;;;;456811;259;1176;-74
2022/06/10 09:35:42;;;;;;;;;;;20.20;52.20;;;;;;456732;259;1294;-74
2022/06/10 09:37:43;;;;;;;;;;;20.20;52.10;;;;;;456647;259;1171;-75
2022/06/10 09:42:04;;;;;;;;;;;20.20;52.20;;;;;;456646;260;1188;-74
2022/06/10 09:44:05;;;;;;;;;;;20.20;52.20;;;;;;456723;259;1124;-74
2022/06/10 09:46:07;;;;;;;;;;;20.20;52.10;;;;;;456789;259;1288;-74
2022/06/10 09:48:09;;;;;;;;;;;20.10;52.20;;;;;;456846;259;1236;-74
2022/06/10 09:50:10;;;;;;;;;;;20.20;52.20;;;;;;456893;259;1174;-75
2022/06/10 09:52:11;;;;;;;;;;;20.20;52.10;;;;;;456786;259;2206;-74
2022/06/10 09:54:13;;;;;;;;;;;20.20;52.00;;;;;;456886;259;1181;-74
2022/06/10 09:56:14;;;;;;;;;;;20.30;52.00;;;;;;456801;259;1109;-74
2022/06/10 09:58:15;;;;;;;;;;;20.20;52.00;;;;;;456500;259;1228;-74
2022/06/10 10:00:18;;;;;;;;;;;20.30;52.10;;;;;;456597;259;1294;-74
2022/06/10 10:02:18;;;;;;;;;;;20.20;52.10;;;;;;457203;259;1365;-74
2022/06/10 10:04:19;;;;;;;;;;;20.20;52.10;;;;;;457388;259;1053;-74
2022/06/10 10:06:21;;;;;;;;;;;20.20;51.90;;;;;;457272;259;1095;-74
2022/06/10 10:08:22;;;;;;;;;;;20.20;52.10;;;;;;456852;259;1121;-74
2022/06/10 10:10:23;;;;;;;;;;;20.20;51.90;;;;;;456887;259;1203;-74
2022/06/10 10:12:25;;;;;;;;;;;20.20;52.00;;;;;;456885;259;2206;-75
2022/06/10 10:14:26;;;;;;;;;;;20.20;52.10;;;;;;456972;259;1078;-74
2022/06/10 10:16:27;;;;;;;;;;;20.20;52.00;;;;;;456882;259;1120;-74
2022/06/10 10:18:29;;;;;;;;;;;20.20;52.00;;;;;;457076;259;1171;-74
2022/06/10 10:20:30;;;;;;;;;;;20.20;52.10;;;;;;456984;259;1099;-74
2022/06/10 10:22:31;;;;;;;;;;;20.20;52.00;;;;;;456878;259;1188;-74
2022/06/10 10:24:33;;;;;;;;;;;20.20;51.80;;;;;;457052;259;1137;-74
2022/06/10 10:26:34;;;;;;;;;;;20.20;52.00;;;;;;457095;256;1205;-74
2022/06/10 10:28:35;;;;;;;;;;;20.20;52.00;;;;;;456970;259;1089;-74
2022/06/10 10:30:37;;;;;;;;;;;20.20;52.00;;;;;;456860;259;1110;-74
2022/06/10 10:32:38;;;;;;;;;;;20.20;51.70;;;;;;456801;260;2151;-74
2022/06/10 10:34:41;;;;;;;;;;;20.20;51.60;;;;;;456832;259;1208;-74
2022/06/10 10:36:41;;;;;;;;;;;20.20;51.70;;;;;;457021;256;1384;-74
2022/06/10 10:38:42;;;;;;;;;;;20.10;51.90;;;;;;456933;259;1136;-75
2022/06/10 10:40:44;;;;;;;;;;;20.00;51.90;;;;;;456850;259;1127;-74
2022/06/10 10:42:45;;;;;;;;;;;20.20;51.80;;;;;;456955;259;1145;-74
2022/06/10 10:44:46;;;;;;;;;;;20.10;51.80;;;;;;456827;259;1127;-74
2022/06/10 10:46:48;;;;;;;;;;;20.20;51.80;;;;;;456743;259;1400;-75
2022/06/10 10:48:49;;;;;;;;;;;20.20;51.80;;;;;;456815;259;1156;-74
2022/06/10 10:50:50;;;;;;;;;;;20.20;51.70;;;;;;456674;259;1310;-74
2022/06/10 10:52:52;;;;;;;;;;;20.20;51.70;;;;;;457003;259;2202;-75
2022/06/10 10:54:53;;;;;;;;;;;20.10;51.90;;;;;;457058;259;1080;-74
2022/06/10 10:56:54;;;;;;;;;;;20.10;51.80;;;;;;456866;259;1131;-75
2022/06/10 10:58:56;;;;;;;;;;;20.20;51.90;;;;;;456848;259;1125;-74
2022/06/10 11:00:57;;;;;;;;;;;20.20;51.90;;;;;;456787;259;1436;-75
2022/06/10 11:02:58;;;;;;;;;;;20.20;51.80;;;;;;456704;259;1295;-74
2022/06/10 11:05:00;;;;;;;;;;;20.30;51.80;;;;;;456539;260;1233;-74
2022/06/10 11:07:01;;;;;;;;;;;20.20;51.70;;;;;;456813;259;1416;-75
2022/06/10 11:09:02;;;;;;;;;;;20.30;51.70;;;;;;456928;259;1373;-75
2022/06/10 11:11:04;;;;;;;;;;;20.30;51.60;;;;;;456872;259;1071;-75
2022/06/10 11:13:05;;;;;;;;;;;20.30;51.40;;;;;;456899;259;2170;-75
2022/06/10 11:15:06;;;;;;;;;;;20.30;51.20;;;;;;456884;259;1143;-75
2022/06/10 11:17:09;;;;;;;;;;;20.40;51.20;;;;;;456854;259;1162;-74
2022/06/10 11:19:09;;;;;;;;;;;20.50;51.10;;;;;;457056;259;1248;-74
2022/06/10 11:21:10;;;;;;;;;;;20.50;50.80;;;;;;456834;259;1958;-74
2022/06/10 11:23:12;;;;;;;;;;;20.40;51.00;;;;;;456764;259;1195;-74
2022/06/10 11:25:15;;;;;;;;;;;20.40;51.10;;;;;;455387;259;1696;-74
2022/06/10 11:27:16;;;;;;;;;;;20.50;50.90;;;;;;456750;259;1236;-75
2022/06/10 11:29:17;;;;;;;;;;;20.50;50.90;;;;;;456691;260;1014;-75
2022/06/10 11:31:19;;;;;;;;;;;20.40;51.10;;;;;;456675;260;1110;-75
2022/06/10 11:33:20;;;;;;;;;;;20.30;51.10;;;;;;456924;260;2224;-74
2022/06/10 11:35:21;;;;;;;;;;;20.50;51.00;;;;;;456507;260;1192;-74
2022/06/10 11:37:23;;;;;;;;;;;20.50;50.90;;;;;;456244;260;1134;-72
2022/06/10 11:39:25;;;;;;;;;;;20.30;51.00;;;;;;456242;259;1209;-72
2022/06/10 11:41:25;;;;;;;;;;;20.10;51.70;;;;;;456334;259;1236;-72
2022/06/10 11:43:27;;;;;;;;;;;20.00;51.90;;;;;;456322;259;1212;-72
2022/06/10 11:45:28;;;;;;;;;;;19.90;52.20;;;;;;456085;259;1156;-72
2022/06/10 11:47:29;;;;;;;;;;;19.80;52.20;;;;;;456389;260;1245;-72
2022/06/10 11:49:30;;;;;;;;;;;19.80;52.20;;;;;;456591;259;1125;-72
2022/06/10 11:51:32;;;;;;;;;;;19.80;52.40;;;;;;456577;259;1254;-72
2022/06/10 11:53:33;;;;;;;;;;;19.70;52.60;;;;;;456595;260;2139;-72
2022/06/10 11:55:35;;;;;;;;;;;19.70;52.50;;;;;;456433;259;1121;-72
2022/06/10 11:59:55;;;;;;;;;;;19.70;52.70;;;;;;456712;260;1285;-72
2022/06/10 12:01:56;;;;;;;;;;;19.70;52.80;;;;;;456425;259;1147;-72
2022/06/10 12:03:58;;;;;;;;;;;19.70;52.80;;;;;;456083;259;1186;-72
2022/06/10 12:05:59;;;;;;;;;;;19.70;52.80;;;;;;456155;259;1265;-72
2022/06/10 12:08:01;;;;;;;;;;;19.70;52.80;;;;;;456556;259;1181;-72
2022/06/10 12:10:02;;;;;;;;;;;19.70;53.00;;;;;;456540;259;1255;-72
2022/06/10 12:12:04;;;;;;;;;;;19.80;53.00;;;;;;456472;259;2150;-72
2022/06/10 12:14:05;;;;;;;;;;;19.80;52.80;;;;;;456427;260;1078;-72